createdAt,value
2017-10-11T00:01:01.497Z,22.61
2017-10-11T00:02:10.164Z,22.49
2017-10-11T00:03:19.495Z,22.51
2017-10-11T00:04:28.490Z,22.49
2017-10-11T00:05:37.166Z,22.51
2017-10-11T00:06:46.171Z,22.55
2017-10-11T00:07:54.846Z,22.57
2017-10-11T00:09:03.841Z,22.61
2017-10-11T00:10:13.304Z,22.54
2017-10-11T00:11:22.305Z,22.54
2017-10-11T00:12:30.963Z,22.54
2017-10-11T00:13:40.276Z,22.49
2017-10-11T00:14:49.264Z,22.55
2017-10-11T00:15:58.638Z,22.52
2017-10-11T00:17:07.972Z,22.49
2017-10-11T00:18:16.954Z,22.51
2017-10-11T00:19:25.635Z,22.57
2017-10-11T00:20:34.656Z,22.49
2017-10-11T00:21:43.611Z,22.55
2017-10-11T00:22:52.925Z,22.54
2017-10-11T00:24:01.922Z,22.47
2017-10-11T00:25:10.590Z,22.49
2017-10-11T00:26:19.575Z,22.46
2017-10-11T00:27:29.375Z,22.47
2017-10-11T00:28:38.052Z,22.55
2017-10-11T00:29:47.389Z,22.4
2017-10-11T00:30:56.392Z,22.43
2017-10-11T00:32:06.388Z,22.37
2017-10-11T00:33:15.739Z,22.47
2017-10-11T00:34:25.061Z,22.4
2017-10-11T00:35:33.745Z,22.47
2017-10-11T00:36:42.731Z,22.51
2017-10-11T00:37:52.070Z,22.45
2017-10-11T00:39:00.852Z,22.51
2017-10-11T00:40:09.842Z,22.42
2017-10-11T00:41:18.513Z,22.43
2017-10-11T00:42:28.163Z,22.46
2017-10-11T00:43:37.812Z,22.55
2017-10-11T00:44:47.128Z,22.45
2017-10-11T00:45:56.484Z,22.46
2017-10-11T00:47:06.181Z,22.43
2017-10-11T00:48:14.849Z,22.43
2017-10-11T00:49:24.501Z,22.39
2017-10-11T00:50:34.957Z,22.36
2017-10-11T00:51:44.296Z,22.45
2017-10-11T00:52:53.525Z,22.42
2017-10-11T00:54:03.183Z,22.49
2017-10-11T00:55:11.848Z,22.39
2017-10-11T00:56:21.277Z,22.43
2017-10-11T00:57:30.298Z,22.39
2017-10-11T00:58:39.315Z,22.4
2017-10-11T00:59:48.003Z,22.4
2017-10-11T01:00:56.998Z,22.37
2017-10-11T01:02:05.655Z,22.39
2017-10-11T01:03:14.667Z,22.37
2017-10-11T01:04:23.687Z,22.46
2017-10-11T01:05:33.033Z,22.43
2017-10-11T01:06:42.028Z,22.43
2017-10-11T01:07:51.434Z,22.35
2017-10-11T01:09:00.431Z,22.46
2017-10-11T01:10:09.411Z,22.45
2017-10-11T01:11:18.411Z,22.43
2017-10-11T01:12:27.079Z,22.4
2017-10-11T01:13:36.436Z,22.36
2017-10-11T01:14:46.097Z,22.4
2017-10-11T01:15:55.419Z,22.39
2017-10-11T01:17:04.094Z,22.46
2017-10-11T01:18:13.091Z,22.46
2017-10-11T01:19:22.377Z,22.45
2017-10-11T01:20:31.717Z,22.43
2017-10-11T01:21:40.372Z,22.47
2017-10-11T01:22:49.697Z,22.43
2017-10-11T01:23:58.704Z,22.4
2017-10-11T01:25:08.020Z,22.45
2017-10-11T01:26:17.076Z,22.47
2017-10-11T01:27:25.728Z,22.42
2017-10-11T01:28:34.381Z,22.46
2017-10-11T01:29:43.040Z,22.47
2017-10-11T01:30:51.741Z,22.43
2017-10-11T01:32:00.413Z,22.47
2017-10-11T01:33:09.760Z,22.43
2017-10-11T01:34:18.404Z,22.45
2017-10-11T01:35:27.745Z,22.39
2017-10-11T01:36:36.888Z,22.46
2017-10-11T01:37:45.881Z,22.39
2017-10-11T01:38:55.211Z,22.43
2017-10-11T01:40:04.206Z,22.39
2017-10-11T01:41:13.215Z,22.43
2017-10-11T01:42:22.209Z,22.43
2017-10-11T01:43:31.881Z,22.39
2017-10-11T01:44:40.882Z,22.39
2017-10-11T01:45:49.878Z,22.37
2017-10-11T01:46:59.206Z,22.39
2017-10-11T01:48:08.196Z,22.39
2017-10-11T01:49:16.853Z,22.45
2017-10-11T01:50:26.173Z,22.39
2017-10-11T01:51:35.169Z,22.39
2017-10-11T01:52:43.830Z,22.46
2017-10-11T01:53:52.922Z,22.4
2017-10-11T01:55:01.919Z,22.45
2017-10-11T01:56:10.934Z,22.4
2017-10-11T01:57:20.276Z,22.37
2017-10-11T01:58:29.588Z,22.39
2017-10-11T01:59:39.249Z,22.4
2017-10-11T02:00:48.593Z,22.39
2017-10-11T02:01:57.642Z,22.36
2017-10-11T02:03:06.657Z,22.39
2017-10-11T02:04:15.980Z,22.36
2017-10-11T02:05:24.646Z,22.4
2017-10-11T02:06:33.309Z,22.33
2017-10-11T02:07:41.976Z,22.37
2017-10-11T02:08:50.959Z,22.39
2017-10-11T02:09:59.963Z,22.37
2017-10-11T02:11:08.789Z,22.37
2017-10-11T02:12:17.775Z,22.43
2017-10-11T02:13:26.770Z,22.4
2017-10-11T02:14:35.501Z,22.4
2017-10-11T02:15:44.522Z,22.39
2017-10-11T02:16:53.497Z,22.35
2017-10-11T02:18:02.486Z,22.39
2017-10-11T02:19:12.164Z,22.37
2017-10-11T02:20:21.839Z,22.37
2017-10-11T02:21:30.871Z,22.37
2017-10-11T02:22:40.206Z,22.4
2017-10-11T02:23:48.914Z,22.39
2017-10-11T02:24:58.225Z,22.37
2017-10-11T02:26:07.229Z,22.37
2017-10-11T02:27:16.214Z,22.33
2017-10-11T02:28:25.187Z,22.39
2017-10-11T02:29:34.194Z,22.42
2017-10-11T02:30:42.836Z,22.39
2017-10-11T02:31:51.837Z,22.36
2017-10-11T02:33:00.828Z,22.36
2017-10-11T02:34:10.149Z,22.35
2017-10-11T02:35:18.820Z,22.33
2017-10-11T02:36:27.813Z,22.35
2017-10-11T02:37:36.831Z,22.4
2017-10-11T02:38:45.871Z,22.39
2017-10-11T02:39:54.882Z,22.36
2017-10-11T02:41:04.871Z,22.4
2017-10-11T02:42:14.200Z,22.37
2017-10-11T02:43:22.863Z,22.37
2017-10-11T02:44:31.534Z,22.36
2017-10-11T02:45:40.540Z,22.33
2017-10-11T02:46:49.202Z,22.36
2017-10-11T02:47:58.544Z,22.35
2017-10-11T02:49:07.561Z,22.37
2017-10-11T02:50:16.249Z,22.39
2017-10-11T02:51:25.732Z,22.36
2017-10-11T02:52:34.392Z,22.31
2017-10-11T02:53:43.046Z,22.3
2017-10-11T02:54:52.055Z,22.42
2017-10-11T02:56:00.727Z,22.39
2017-10-11T02:57:10.173Z,22.37
2017-10-11T02:58:19.212Z,22.35
2017-10-11T02:59:28.557Z,22.33
2017-10-11T03:00:38.198Z,22.36
2017-10-11T03:01:47.526Z,22.31
2017-10-11T03:02:56.524Z,22.37
2017-10-11T03:04:05.518Z,22.33
2017-10-11T03:05:14.513Z,22.35
2017-10-11T03:06:23.509Z,22.33
2017-10-11T03:07:32.821Z,22.39
2017-10-11T03:08:41.604Z,22.33
2017-10-11T03:09:50.263Z,22.33
2017-10-11T03:10:59.606Z,22.39
2017-10-11T03:12:08.277Z,22.33
2017-10-11T03:13:16.935Z,22.35
2017-10-11T03:14:25.920Z,22.37
2017-10-11T03:15:34.955Z,22.37
2017-10-11T03:16:44.281Z,22.39
2017-10-11T03:17:52.937Z,22.36
2017-10-11T03:19:01.588Z,22.4
2017-10-11T03:20:10.294Z,22.31
2017-10-11T03:21:19.608Z,22.33
2017-10-11T03:22:28.608Z,22.4
2017-10-11T03:23:38.603Z,22.35
2017-10-11T03:24:47.582Z,22.35
2017-10-11T03:25:57.335Z,22.33
2017-10-11T03:27:06.030Z,22.39
2017-10-11T03:28:14.694Z,22.35
2017-10-11T03:29:24.681Z,22.33
2017-10-11T03:30:34.012Z,22.39
2017-10-11T03:31:43.141Z,22.39
2017-10-11T03:32:52.144Z,22.27
2017-10-11T03:34:00.820Z,22.31
2017-10-11T03:35:10.501Z,22.3
2017-10-11T03:36:19.495Z,22.3
2017-10-11T03:37:28.799Z,22.36
2017-10-11T03:38:38.129Z,22.3
2017-10-11T03:39:46.789Z,22.36
2017-10-11T03:40:56.107Z,22.27
2017-10-11T03:42:05.094Z,22.37
2017-10-11T03:43:14.387Z,22.28
2017-10-11T03:44:24.358Z,22.28
2017-10-11T03:45:33.357Z,22.28
2017-10-11T03:46:42.368Z,22.22
2017-10-11T03:47:51.694Z,22.35
2017-10-11T03:49:00.685Z,22.25
2017-10-11T03:50:10.346Z,22.28
2017-10-11T03:51:19.340Z,22.27
2017-10-11T03:52:28.999Z,22.3
2017-10-11T03:53:38.320Z,22.27
2017-10-11T03:54:47.939Z,22.27
2017-10-11T03:55:56.932Z,22.27
2017-10-11T03:57:05.913Z,22.25
2017-10-11T03:58:15.241Z,22.28
2017-10-11T03:59:24.900Z,22.3
2017-10-11T04:00:34.275Z,22.25
2017-10-11T04:01:44.255Z,22.25
2017-10-11T04:02:53.243Z,22.3
2017-10-11T04:04:02.559Z,22.31
2017-10-11T04:05:11.890Z,22.31
2017-10-11T04:06:20.880Z,22.31
2017-10-11T04:07:30.530Z,22.27
2017-10-11T04:08:39.860Z,22.25
2017-10-11T04:09:48.847Z,22.3
2017-10-11T04:10:57.494Z,22.33
2017-10-11T04:12:06.650Z,22.28
2017-10-11T04:13:16.650Z,22.39
2017-10-11T04:14:25.316Z,22.3
2017-10-11T04:15:34.362Z,22.28
2017-10-11T04:16:44.067Z,22.25
2017-10-11T04:17:52.884Z,22.25
2017-10-11T04:19:01.538Z,22.28
2017-10-11T04:20:10.856Z,22.28
2017-10-11T04:21:19.524Z,22.37
2017-10-11T04:22:28.542Z,22.3
2017-10-11T04:23:37.883Z,22.3
2017-10-11T04:24:47.201Z,22.24
2017-10-11T04:25:55.855Z,22.3
2017-10-11T04:27:04.512Z,22.28
2017-10-11T04:28:13.504Z,22.27
2017-10-11T04:29:22.800Z,22.21
2017-10-11T04:30:31.465Z,22.3
2017-10-11T04:31:40.458Z,22.28
2017-10-11T04:32:49.445Z,22.24
2017-10-11T04:33:58.772Z,22.22
2017-10-11T04:35:07.764Z,22.24
2017-10-11T04:36:16.766Z,22.24
2017-10-11T04:37:26.097Z,22.25
2017-10-11T04:38:35.780Z,22.28
2017-10-11T04:39:45.421Z,22.21
2017-10-11T04:40:54.577Z,22.27
2017-10-11T04:42:03.592Z,22.33
2017-10-11T04:43:12.920Z,22.24
2017-10-11T04:44:21.674Z,22.33
2017-10-11T04:45:31.004Z,22.3
2017-10-11T04:46:40.047Z,22.27
2017-10-11T04:47:49.401Z,22.24
2017-10-11T04:48:58.118Z,22.27
2017-10-11T04:50:06.825Z,22.27
2017-10-11T04:51:15.810Z,22.22
2017-10-11T04:52:25.116Z,22.2
2017-10-11T04:53:34.433Z,22.24
2017-10-11T04:54:43.757Z,22.21
2017-10-11T04:55:53.063Z,22.27
2017-10-11T04:57:02.389Z,22.24
2017-10-11T04:58:11.715Z,22.25
2017-10-11T04:59:21.050Z,22.24
2017-10-11T05:00:29.707Z,22.3
2017-10-11T05:01:38.737Z,22.27
2017-10-11T05:02:47.732Z,22.3
2017-10-11T05:03:56.742Z,22.28
2017-10-11T05:05:06.102Z,22.28
2017-10-11T05:06:14.760Z,22.22
2017-10-11T05:07:24.137Z,22.22
2017-10-11T05:08:33.148Z,22.27
2017-10-11T05:09:43.135Z,22.24
2017-10-11T05:10:52.146Z,22.28
2017-10-11T05:12:01.484Z,22.27
2017-10-11T05:13:10.562Z,22.3
2017-10-11T05:14:19.347Z,22.22
2017-10-11T05:15:28.655Z,22.25
2017-10-11T05:16:37.665Z,22.24
2017-10-11T05:17:47.654Z,22.25
2017-10-11T05:18:56.382Z,22.33
2017-10-11T05:20:05.459Z,22.27
2017-10-11T05:21:14.492Z,22.27
2017-10-11T05:22:23.480Z,22.33
2017-10-11T05:23:32.619Z,22.28
2017-10-11T05:24:41.313Z,22.24
2017-10-11T05:25:51.290Z,22.31
2017-10-11T05:27:00.284Z,22.27
2017-10-11T05:28:09.602Z,22.24
2017-10-11T05:29:18.698Z,22.3
2017-10-11T05:30:28.066Z,22.3
2017-10-11T05:31:37.106Z,22.25
2017-10-11T05:32:46.147Z,22.28
2017-10-11T05:33:55.508Z,22.33
2017-10-11T05:35:04.891Z,22.3
2017-10-11T05:36:13.911Z,22.3
2017-10-11T05:37:22.953Z,22.28
2017-10-11T05:38:32.270Z,22.25
2017-10-11T05:39:42.267Z,22.25
2017-10-11T05:40:51.661Z,22.33
2017-10-11T05:42:00.663Z,22.3
2017-10-11T05:43:09.700Z,22.28
2017-10-11T05:44:18.832Z,22.33
2017-10-11T05:45:27.487Z,22.28
2017-10-11T05:46:36.811Z,22.28
2017-10-11T05:47:45.805Z,22.33
2017-10-11T05:48:54.877Z,22.31
2017-10-11T05:50:04.027Z,22.28
2017-10-11T05:51:13.062Z,22.28
2017-10-11T05:52:22.153Z,22.3
2017-10-11T05:53:31.304Z,22.35
2017-10-11T05:54:41.105Z,22.25
2017-10-11T05:55:50.262Z,22.24
2017-10-11T05:56:59.615Z,22.3
2017-10-11T05:58:08.764Z,22.27
2017-10-11T05:59:43.793Z,22.24
2017-10-11T06:00:52.588Z,22.3
2017-10-11T06:02:01.591Z,22.24
2017-10-11T06:03:10.887Z,22.24
2017-10-11T06:04:20.871Z,22.3
2017-10-11T06:05:29.528Z,22.27
2017-10-11T06:06:38.511Z,22.31
2017-10-11T06:07:47.526Z,22.28
2017-10-11T06:08:56.869Z,22.27
2017-10-11T06:10:06.186Z,22.28
2017-10-11T06:11:15.502Z,22.31
2017-10-11T06:12:25.159Z,22.25
2017-10-11T06:13:34.155Z,22.36
2017-10-11T06:14:43.145Z,22.37
2017-10-11T06:15:53.394Z,22.31
2017-10-11T06:17:02.775Z,22.36
2017-10-11T06:18:11.972Z,22.33
2017-10-11T06:19:21.573Z,22.39
2017-10-11T06:20:30.409Z,22.33
2017-10-11T06:21:39.150Z,22.3
2017-10-11T06:22:48.467Z,22.35
2017-10-11T06:23:57.217Z,22.3
2017-10-11T06:25:06.311Z,22.33
2017-10-11T06:26:15.933Z,22.4
2017-10-11T06:27:24.901Z,22.37
2017-10-11T06:28:34.227Z,22.37
2017-10-11T06:29:43.638Z,22.46
2017-10-11T06:30:53.291Z,22.42
2017-10-11T06:32:02.614Z,22.43
2017-10-11T06:33:12.292Z,22.39
2017-10-11T06:34:21.705Z,22.46
2017-10-11T06:35:31.210Z,22.43
2017-10-11T06:36:40.635Z,22.39
2017-10-11T06:37:49.745Z,22.52
2017-10-11T06:38:58.449Z,22.58
2017-10-11T06:40:07.456Z,22.62
2017-10-11T06:41:16.828Z,22.6
2017-10-11T06:42:25.507Z,22.6
2017-10-11T06:43:34.825Z,22.6
2017-10-11T06:44:43.840Z,22.61
2017-10-11T06:45:52.856Z,22.65
2017-10-11T06:47:01.632Z,22.61
2017-10-11T06:48:11.047Z,22.6
2017-10-11T06:49:20.066Z,22.62
2017-10-11T06:50:29.777Z,22.55
2017-10-11T06:51:39.441Z,22.61
2017-10-11T06:52:49.002Z,22.52
2017-10-11T06:53:57.687Z,22.57
2017-10-11T06:55:06.722Z,22.57
2017-10-11T06:56:15.465Z,22.6
2017-10-11T06:57:24.931Z,22.58
2017-10-11T06:58:33.997Z,22.57
2017-10-11T06:59:43.333Z,22.6
2017-10-11T07:00:52.337Z,22.62
2017-10-11T07:02:01.486Z,22.58
2017-10-11T07:03:10.483Z,22.58
2017-10-11T07:04:19.816Z,22.58
2017-10-11T07:05:29.142Z,22.57
2017-10-11T07:06:37.851Z,22.55
2017-10-11T07:07:46.894Z,22.62
2017-10-11T07:08:56.210Z,22.54
2017-10-11T07:10:05.565Z,22.62
2017-10-11T07:11:14.246Z,22.68
2017-10-11T07:12:23.264Z,22.62
2017-10-11T07:13:31.953Z,22.65
2017-10-11T07:14:41.274Z,22.57
2017-10-11T07:15:51.442Z,22.7
2017-10-11T07:17:00.763Z,22.58
2017-10-11T07:18:09.852Z,22.6
2017-10-11T07:19:18.845Z,22.57
2017-10-11T07:20:28.250Z,22.58
2017-10-11T07:21:37.309Z,22.55
2017-10-11T07:22:47.005Z,22.67
2017-10-11T07:23:56.396Z,22.61
2017-10-11T07:25:05.393Z,22.55
2017-10-11T07:26:14.409Z,22.57
2017-10-11T07:27:23.731Z,22.67
2017-10-11T07:28:33.055Z,22.61
2017-10-11T07:29:42.212Z,22.61
2017-10-11T07:30:51.567Z,22.57
2017-10-11T07:32:00.716Z,22.54
2017-10-11T07:33:09.793Z,22.57
2017-10-11T07:34:19.109Z,22.55
2017-10-11T07:35:27.789Z,22.6
2017-10-11T07:36:36.806Z,22.61
2017-10-11T07:37:45.828Z,22.58
2017-10-11T07:38:55.130Z,22.6
2017-10-11T07:40:04.122Z,22.64
2017-10-11T07:41:13.880Z,22.55
2017-10-11T07:42:22.599Z,22.58
2017-10-11T07:43:31.335Z,22.61
2017-10-11T07:44:40.699Z,22.57
2017-10-11T07:45:49.695Z,22.62
2017-10-11T07:46:59.358Z,22.62
2017-10-11T07:48:08.031Z,22.6
2017-10-11T07:49:17.040Z,22.61
2017-10-11T07:50:26.160Z,22.62
2017-10-11T07:51:34.951Z,22.65
2017-10-11T07:52:43.985Z,22.58
2017-10-11T07:53:53.030Z,22.6
2017-10-11T07:55:03.057Z,22.62
2017-10-11T07:56:12.449Z,22.61
2017-10-11T07:57:21.443Z,22.62
2017-10-11T07:58:30.435Z,22.77
2017-10-11T07:59:39.471Z,22.72
2017-10-11T08:00:48.500Z,22.68
2017-10-11T08:01:57.913Z,22.7
2017-10-11T08:03:07.081Z,22.7
2017-10-11T08:04:16.153Z,22.73
2017-10-11T08:05:24.860Z,22.72
2017-10-11T08:06:34.521Z,22.65
2017-10-11T08:07:43.196Z,22.75
2017-10-11T08:08:51.867Z,22.7
2017-10-11T08:10:01.205Z,22.67
2017-10-11T08:11:10.213Z,22.67
2017-10-11T08:12:19.316Z,22.75
2017-10-11T08:13:28.370Z,22.73
2017-10-11T08:14:37.386Z,22.79
2017-10-11T08:15:46.057Z,22.75
2017-10-11T08:16:55.717Z,22.75
2017-10-11T08:18:04.739Z,22.73
2017-10-11T08:19:13.743Z,22.73
2017-10-11T08:20:22.493Z,22.68
2017-10-11T08:21:31.164Z,22.72
2017-10-11T08:22:40.385Z,22.75
2017-10-11T08:23:49.524Z,22.67
2017-10-11T08:24:58.688Z,22.7
2017-10-11T08:26:07.450Z,22.64
2017-10-11T08:27:16.126Z,22.76
2017-10-11T08:28:25.144Z,22.67
2017-10-11T08:29:33.893Z,22.72
2017-10-11T08:30:43.333Z,22.67
2017-10-11T08:31:52.327Z,22.64
2017-10-11T08:33:01.062Z,22.72
2017-10-11T08:34:10.118Z,22.7
2017-10-11T08:35:19.157Z,22.73
2017-10-11T08:36:28.273Z,22.68
2017-10-11T08:37:37.662Z,22.68
2017-10-11T08:38:46.773Z,22.65
2017-10-11T08:39:55.442Z,22.65
2017-10-11T08:41:04.813Z,22.68
2017-10-11T08:42:13.979Z,22.64
2017-10-11T08:43:22.704Z,22.68
2017-10-11T08:44:31.388Z,22.68
2017-10-11T08:45:40.698Z,22.7
2017-10-11T08:46:49.749Z,22.65
2017-10-11T08:47:59.085Z,22.61
2017-10-11T08:49:08.085Z,22.72
2017-10-11T08:50:17.106Z,22.65
2017-10-11T08:51:26.096Z,22.68
2017-10-11T08:52:35.421Z,22.68
2017-10-11T08:53:44.716Z,22.72
2017-10-11T08:54:54.707Z,22.61
2017-10-11T08:56:03.425Z,22.7
2017-10-11T08:57:12.416Z,22.73
2017-10-11T08:58:21.412Z,22.68
2017-10-11T08:59:30.740Z,22.72
2017-10-11T09:00:39.738Z,22.72
2017-10-11T09:01:48.412Z,22.73
2017-10-11T09:02:57.801Z,22.64
2017-10-11T09:04:07.653Z,22.72
2017-10-11T09:05:16.885Z,22.67
2017-10-11T09:06:26.708Z,22.65
2017-10-11T09:07:35.841Z,22.72
2017-10-11T09:08:44.941Z,22.65
2017-10-11T09:09:54.000Z,22.72
2017-10-11T09:11:03.094Z,22.73
2017-10-11T09:12:11.919Z,22.73
2017-10-11T09:13:21.015Z,22.67
2017-10-11T09:14:30.541Z,22.73
2017-10-11T09:15:40.379Z,22.72
2017-10-11T09:16:50.276Z,22.6
2017-10-11T09:17:59.381Z,22.76
2017-10-11T09:19:08.795Z,22.67
2017-10-11T09:20:18.601Z,22.67
2017-10-11T09:21:28.728Z,22.72
2017-10-11T09:22:37.584Z,22.72
2017-10-11T09:23:46.330Z,22.68
2017-10-11T09:24:55.367Z,22.68
2017-10-11T09:26:04.888Z,22.77
2017-10-11T09:27:13.800Z,22.72
2017-10-11T09:28:23.325Z,22.7
2017-10-11T09:29:33.578Z,22.72
2017-10-11T09:30:42.722Z,22.72
2017-10-11T09:31:51.896Z,22.73
2017-10-11T09:33:01.172Z,22.75
2017-10-11T09:34:10.879Z,22.7
2017-10-11T09:35:19.587Z,22.73
2017-10-11T09:36:28.274Z,22.75
2017-10-11T09:37:37.619Z,22.75
2017-10-11T09:38:46.288Z,22.68
2017-10-11T09:39:55.286Z,22.7
2017-10-11T09:41:04.611Z,22.73
2017-10-11T09:42:13.927Z,22.72
2017-10-11T09:43:22.591Z,22.7
2017-10-11T09:44:31.611Z,22.68
2017-10-11T09:45:41.267Z,22.73
2017-10-11T09:46:50.288Z,22.73
2017-10-11T09:47:59.657Z,22.73
2017-10-11T09:49:08.322Z,22.73
2017-10-11T09:50:17.995Z,22.76
2017-10-11T09:51:26.670Z,22.77
2017-10-11T09:52:35.713Z,22.7
2017-10-11T09:53:44.394Z,22.75
2017-10-11T09:54:53.053Z,22.75
2017-10-11T09:56:02.746Z,22.7
2017-10-11T09:57:12.418Z,22.72
2017-10-11T09:58:22.094Z,22.67
2017-10-11T09:59:31.784Z,22.62
2017-10-11T10:00:41.440Z,22.75
2017-10-11T10:01:50.129Z,22.7
2017-10-11T10:02:59.942Z,22.75
2017-10-11T10:04:09.296Z,22.7
2017-10-11T10:05:18.992Z,22.72
2017-10-11T10:06:28.033Z,22.67
2017-10-11T10:07:37.369Z,22.68
2017-10-11T10:08:46.357Z,22.75
2017-10-11T10:09:56.018Z,22.7
2017-10-11T10:11:05.668Z,22.7
2017-10-11T10:12:15.002Z,22.73
2017-10-11T10:13:25.011Z,22.73
2017-10-11T10:14:34.023Z,22.67
2017-10-11T10:15:43.025Z,22.65
2017-10-11T10:16:52.354Z,22.65
2017-10-11T10:18:01.345Z,22.73
2017-10-11T10:19:10.012Z,22.68
2017-10-11T10:20:18.688Z,22.67
2017-10-11T10:21:27.678Z,22.72
2017-10-11T10:22:36.705Z,22.7
2017-10-11T10:23:45.712Z,22.65
2017-10-11T10:24:54.378Z,22.72
2017-10-11T10:26:03.713Z,22.67
2017-10-11T10:27:13.364Z,22.73
2017-10-11T10:28:22.385Z,22.67
2017-10-11T10:29:31.729Z,22.65
2017-10-11T10:30:41.059Z,22.68
2017-10-11T10:31:50.690Z,22.68
2017-10-11T10:32:59.693Z,22.73
2017-10-11T10:34:08.694Z,22.7
2017-10-11T10:35:17.404Z,22.72
2017-10-11T10:36:26.388Z,22.6
2017-10-11T10:37:35.374Z,22.65
2017-10-11T10:38:44.386Z,22.57
2017-10-11T10:39:53.781Z,22.6
2017-10-11T10:41:02.818Z,22.6
2017-10-11T10:42:11.538Z,22.6
2017-10-11T10:43:20.883Z,22.61
2017-10-11T10:44:30.282Z,22.67
2017-10-11T10:45:39.184Z,22.57
2017-10-11T10:46:49.389Z,22.61
2017-10-11T10:47:58.524Z,22.61
2017-10-11T10:49:08.029Z,22.6
2017-10-11T10:50:17.670Z,22.6
2017-10-11T10:51:26.572Z,22.57
2017-10-11T10:52:36.116Z,22.57
2017-10-11T10:53:45.611Z,22.58
2017-10-11T10:54:54.874Z,22.61
2017-10-11T10:56:03.822Z,22.65
2017-10-11T10:57:13.148Z,22.58
2017-10-11T10:58:22.646Z,22.57
2017-10-11T10:59:31.959Z,22.67
2017-10-11T11:00:40.670Z,22.6
2017-10-11T11:01:49.992Z,22.6
2017-10-11T11:02:58.681Z,22.62
2017-10-11T11:04:07.359Z,22.68
2017-10-11T11:05:16.368Z,22.6
2017-10-11T11:06:25.655Z,22.61
2017-10-11T11:07:34.651Z,22.61
2017-10-11T11:08:43.664Z,22.6
2017-10-11T11:09:52.657Z,22.7
2017-10-11T11:11:01.657Z,22.7
2017-10-11T11:12:10.649Z,22.72
2017-10-11T11:13:19.704Z,22.64
2017-10-11T11:14:28.415Z,22.65
2017-10-11T11:15:37.439Z,22.72
2017-10-11T11:16:46.488Z,22.72
2017-10-11T11:17:55.487Z,22.72
2017-10-11T11:19:04.474Z,22.68
2017-10-11T11:20:14.145Z,22.58
2017-10-11T11:21:22.834Z,22.6
2017-10-11T11:22:31.827Z,22.65
2017-10-11T11:23:40.561Z,22.65
2017-10-11T11:24:50.263Z,22.62
2017-10-11T11:25:59.250Z,22.58
2017-10-11T11:27:07.964Z,22.65
2017-10-11T11:28:16.988Z,22.64
2017-10-11T11:29:26.283Z,22.6
2017-10-11T11:30:35.265Z,22.72
2017-10-11T11:31:44.620Z,22.61
2017-10-11T11:32:53.617Z,22.64
2017-10-11T11:34:02.291Z,22.65
2017-10-11T11:35:11.282Z,22.65
2017-10-11T11:36:20.607Z,22.57
2017-10-11T11:37:29.684Z,22.62
2017-10-11T11:38:39.056Z,22.57
2017-10-11T11:39:48.081Z,22.72
2017-10-11T11:40:56.810Z,22.61
2017-10-11T11:42:06.152Z,22.6
2017-10-11T11:43:15.843Z,22.58
2017-10-11T11:44:25.384Z,22.57
2017-10-11T11:45:34.464Z,22.58
2017-10-11T11:46:43.897Z,22.64
2017-10-11T11:47:52.560Z,22.6
2017-10-11T11:49:02.211Z,22.6
2017-10-11T11:50:11.204Z,22.55
2017-10-11T11:51:19.893Z,22.65
2017-10-11T11:52:28.557Z,22.61
2017-10-11T11:53:37.890Z,22.57
2017-10-11T11:54:46.625Z,22.57
2017-10-11T11:55:56.299Z,22.57
2017-10-11T11:57:05.650Z,22.55
2017-10-11T11:58:14.802Z,22.58
2017-10-11T11:59:23.806Z,22.57
2017-10-11T12:00:33.247Z,22.6
2017-10-11T12:01:41.920Z,22.61
2017-10-11T12:02:50.938Z,22.61
2017-10-11T12:03:59.945Z,22.67
2017-10-11T12:05:08.933Z,22.58
2017-10-11T12:06:17.938Z,22.64
2017-10-11T12:07:26.621Z,22.67
2017-10-11T12:08:36.275Z,22.67
2017-10-11T12:09:45.271Z,22.67
2017-10-11T12:10:54.267Z,22.55
2017-10-11T12:12:02.961Z,22.6
2017-10-11T12:13:12.285Z,22.58
2017-10-11T12:14:21.664Z,22.6
2017-10-11T12:15:30.669Z,22.6
2017-10-11T12:16:39.668Z,22.7
2017-10-11T12:17:48.334Z,22.67
2017-10-11T12:18:57.658Z,22.72
2017-10-11T12:20:06.315Z,22.73
2017-10-11T12:21:15.626Z,22.62
2017-10-11T12:22:24.295Z,22.73
2017-10-11T12:23:33.976Z,22.67
2017-10-11T12:24:42.672Z,22.65
2017-10-11T12:25:51.669Z,22.62
2017-10-11T12:27:00.382Z,22.72
2017-10-11T12:28:09.379Z,22.72
2017-10-11T12:29:18.380Z,22.73
2017-10-11T12:30:27.719Z,22.67
2017-10-11T12:31:37.050Z,22.6
2017-10-11T12:32:46.047Z,22.72
2017-10-11T12:33:55.082Z,22.7
2017-10-11T12:35:03.746Z,22.72
2017-10-11T12:36:12.768Z,22.68
2017-10-11T12:37:21.765Z,22.7
2017-10-11T12:38:31.448Z,22.73
2017-10-11T12:39:40.123Z,22.73
2017-10-11T12:40:49.468Z,22.62
2017-10-11T12:41:58.492Z,22.72
2017-10-11T12:43:07.520Z,22.61
2017-10-11T12:44:16.516Z,22.73
2017-10-11T12:45:25.524Z,22.76
2017-10-11T12:46:34.523Z,22.67
2017-10-11T12:47:43.201Z,22.75
2017-10-11T12:48:51.866Z,22.73
2017-10-11T12:50:01.578Z,22.75
2017-10-11T12:51:11.236Z,22.67
2017-10-11T12:52:19.905Z,22.72
2017-10-11T12:53:29.235Z,22.72
2017-10-11T12:54:38.241Z,22.72
2017-10-11T12:55:47.559Z,22.79
2017-10-11T12:56:56.561Z,22.7
2017-10-11T12:58:05.880Z,22.7
2017-10-11T12:59:15.205Z,22.65
2017-10-11T13:00:23.879Z,22.73
2017-10-11T13:01:32.553Z,22.75
2017-10-11T13:02:42.266Z,22.73
2017-10-11T13:03:52.044Z,22.76
2017-10-11T13:05:01.038Z,22.77
2017-10-11T13:06:11.024Z,22.7
2017-10-11T13:07:20.029Z,22.75
2017-10-11T13:08:29.672Z,22.7
2017-10-11T13:09:39.327Z,22.72
2017-10-11T13:10:48.999Z,22.68
2017-10-11T13:11:57.753Z,22.72
2017-10-11T13:13:06.751Z,22.76
2017-10-11T13:14:16.096Z,22.68
2017-10-11T13:15:24.755Z,22.72
2017-10-11T13:16:34.444Z,22.7
2017-10-11T13:17:43.479Z,22.68
2017-10-11T13:18:52.974Z,22.7
2017-10-11T13:20:01.644Z,22.77
2017-10-11T13:21:10.665Z,22.68
2017-10-11T13:22:19.665Z,22.62
2017-10-11T13:23:29.002Z,22.72
2017-10-11T13:24:38.033Z,22.68
2017-10-11T13:25:47.082Z,22.7
2017-10-11T13:26:56.105Z,22.75
2017-10-11T13:28:04.878Z,22.67
2017-10-11T13:29:14.576Z,22.75
2017-10-11T13:30:23.359Z,22.73
2017-10-11T13:31:32.110Z,22.75
2017-10-11T13:32:41.489Z,22.75
2017-10-11T13:33:50.821Z,22.75
2017-10-11T13:35:00.148Z,22.77
2017-10-11T13:36:09.826Z,22.67
2017-10-11T13:37:19.167Z,22.62
2017-10-11T13:38:28.147Z,22.79
2017-10-11T13:39:36.827Z,22.75
2017-10-11T13:40:45.872Z,22.7
2017-10-11T13:41:55.557Z,22.75
2017-10-11T13:43:04.217Z,22.75
2017-10-11T13:44:13.539Z,22.7
2017-10-11T13:45:22.881Z,22.75
2017-10-11T13:46:32.185Z,22.75
2017-10-11T13:47:40.921Z,22.7
2017-10-11T13:48:50.263Z,22.73
2017-10-11T13:49:59.261Z,22.79
2017-10-11T13:51:08.268Z,22.72
2017-10-11T13:52:16.928Z,22.67
2017-10-11T13:53:26.626Z,22.79
2017-10-11T13:54:35.985Z,22.77
2017-10-11T13:55:44.677Z,22.76
2017-10-11T13:56:54.000Z,22.73
2017-10-11T13:58:03.011Z,22.77
2017-10-11T13:59:11.710Z,22.68
2017-10-11T14:00:21.039Z,22.8
2017-10-11T14:01:29.728Z,22.82
2017-10-11T14:02:39.053Z,22.82
2017-10-11T14:03:48.394Z,22.76
2017-10-11T14:04:57.069Z,22.83
2017-10-11T14:06:06.073Z,22.85
2017-10-11T14:07:15.421Z,22.82
2017-10-11T14:08:24.455Z,22.77
2017-10-11T14:09:33.505Z,22.82
2017-10-11T14:10:43.125Z,22.85
2017-10-11T14:11:52.156Z,22.8
2017-10-11T14:13:01.164Z,22.85
2017-10-11T14:14:10.542Z,22.83
2017-10-11T14:15:19.534Z,22.85
2017-10-11T14:16:28.536Z,22.82
2017-10-11T14:17:37.864Z,22.82
2017-10-11T14:18:47.847Z,22.8
2017-10-11T14:19:57.506Z,22.85
2017-10-11T14:21:06.502Z,22.9
2017-10-11T14:22:15.220Z,22.92
2017-10-11T14:23:24.908Z,22.85
2017-10-11T14:24:33.569Z,22.9
2017-10-11T14:25:42.561Z,22.9
2017-10-11T14:26:51.226Z,22.86
2017-10-11T14:28:00.844Z,22.92
2017-10-11T14:29:09.826Z,22.85
2017-10-11T14:30:18.811Z,22.92
2017-10-11T14:31:28.472Z,22.85
2017-10-11T14:32:37.805Z,22.85
2017-10-11T14:33:46.689Z,22.88
2017-10-11T14:34:56.032Z,22.91
2017-10-11T14:37:15.010Z,22.88
2017-10-11T14:38:24.662Z,22.88
2017-10-11T14:39:34.484Z,22.9
2017-10-11T14:40:43.491Z,22.9
2017-10-11T14:41:52.149Z,22.86
2017-10-11T14:43:01.131Z,22.97
2017-10-11T14:44:10.128Z,22.86
2017-10-11T14:45:19.452Z,22.94
2017-10-11T14:46:28.465Z,22.94
2017-10-11T14:47:37.132Z,22.9
2017-10-11T14:48:46.146Z,22.95
2017-10-11T14:49:55.480Z,22.94
2017-10-11T14:51:04.891Z,22.9
2017-10-11T14:52:13.567Z,22.88
2017-10-11T14:53:23.249Z,22.91
2017-10-11T14:54:32.927Z,22.88
2017-10-11T14:55:42.275Z,22.94
2017-10-11T14:56:50.949Z,22.92